Time;durP1;ratioP1;P1;durP2;ratioP2;P2;SDS_P1;SDS_P2;PMS_P1;PMS_P2;Temp;Humidity;BMP_temperature;BMP_pressure;BME280_temperature;BME280_humidity;BME280_pressure;Samples;Min_cycle;Max_cycle;Signal;HPM_P1;HPM_P2
2022/12/15 00:40:07;;;;;;;64.90;22.40;;;;;;;-4.35;100.00;98102.70;99160;1353;22597;-34
2022/12/15 00:42:33;;;;;;;51.10;21.50;;;;;;;-4.35;100.00;98108.36;98982;1372;24437;-35
2022/12/15 00:44:59;;;;;;;43.30;14.40;;;;;;;-4.32;100.00;98111.61;99237;1368;22729;-39
2022/12/15 00:47:25;;;;;;;53.90;21.40;;;;;;;-4.36;100.00;98109.84;99095;1353;23306;-30
2022/12/15 01:22:08;;;;;;;53.50;20.50;;;;;;;-4.48;100.00;98147.08;99109;1362;22616;-33
2022/12/15 01:24:33;;;;;;;56.60;23.80;;;;;;;-4.54;100.00;98153.50;99053;1372;22734;-35
2022/12/15 01:26:59;;;;;;;54.80;22.50;;;;;;;-4.63;100.00;98155.84;98984;1354;22602;-30
2022/12/15 01:29:24;;;;;;;45.50;16.20;;;;;;;-4.74;100.00;98155.52;99048;1357;23041;-34
2022/12/15 01:31:50;;;;;;;21.50;11.20;;;;;;;-4.78;100.00;98155.59;99175;1372;26697;-34
2022/12/15 01:34:18;;;;;;;59.90;21.70;;;;;;;-4.84;100.00;98154.52;99154;1354;26539;-37
2022/12/15 01:36:44;;;;;;;64.50;26.90;;;;;;;-4.97;100.00;98159.80;99088;1368;22725;-35
2022/12/15 01:39:10;;;;;;;83.20;29.90;;;;;;;-5.09;100.00;98157.11;99155;1369;24448;-28
2022/12/15 01:41:36;;;;;;;46.00;15.00;;;;;;;-5.21;100.00;98158.06;99109;1349;24481;-33
2022/12/15 01:44:15;;;;;;;80.20;27.80;;;;;;;-5.23;100.00;98159.67;99184;1353;22751;-28
2022/12/15 01:46:41;;;;;;;64.30;25.40;;;;;;;-5.36;100.00;98161.14;99010;1353;22723;-28
2022/12/15 01:49:25;;;;;;;22.20;11.40;;;;;;;-5.46;100.00;98170.00;99070;1370;23244;-32
2022/12/15 01:51:53;;;;;;;34.70;15.50;;;;;;;-5.54;100.00;98176.36;99071;1353;22849;-29
2022/12/15 01:54:22;;;;;;;63.50;25.00;;;;;;;-5.59;100.00;98178.73;99130;1372;22735;-33
2022/12/15 01:56:50;;;;;;;27.80;14.80;;;;;;;-5.64;100.00;98178.56;99117;1369;22851;-29
2022/12/15 01:59:19;;;;;;;77.20;25.80;;;;;;;-5.66;100.00;98182.36;99170;1352;22850;-35
2022/12/15 02:01:45;;;;;;;83.50;27.90;;;;;;;-5.63;100.00;98189.96;99172;1353;24463;-30
2022/12/15 02:04:10;;;;;;;67.80;23.60;;;;;;;-5.54;100.00;98197.52;99133;1370;22738;-40
2022/12/15 02:06:36;;;;;;;92.20;27.20;;;;;;;-5.42;100.00;98206.77;99025;1353;23080;-33
2022/12/15 02:09:02;;;;;;;103.80;29.80;;;;;;;-5.17;100.00;98211.38;99045;1372;23089;-32
2022/12/15 02:11:49;;;;;;;21.60;10.00;;;;;;;-5.11;100.00;98214.56;99202;1353;22863;-33
2022/12/15 02:14:22;;;;;;;94.30;27.10;;;;;;;-5.16;100.00;98223.11;99055;1352;22737;-35
2022/12/15 02:16:56;;;;;;;71.90;26.60;;;;;;;-5.12;100.00;98219.98;99207;1372;25310;-29
2022/12/15 02:19:43;;;;;;;58.60;20.60;;;;;;;-5.07;100.00;98226.82;99067;1353;24357;-29
2022/12/15 02:22:33;;;;;;;60.20;23.60;;;;;;;-5.01;100.00;98229.23;98898;1356;24467;-33
2022/12/15 02:25:17;;;;;;;64.00;23.80;;;;;;;-5.12;100.00;98234.65;99149;1371;25399;-30
2022/12/15 02:28:03;;;;;;;42.50;19.30;;;;;;;-5.16;100.00;98239.40;99037;1353;22687;-30
2022/12/15 02:30:44;;;;;;;56.10;26.40;;;;;;;-5.09;100.00;98244.02;99043;1353;22614;-29
2022/12/15 02:33:14;;;;;;;60.00;23.10;;;;;;;-5.20;100.00;98250.52;99240;1370;22847;-30
2022/12/15 02:35:52;;;;;;;83.40;25.40;;;;;;;-5.23;100.00;98251.83;98988;1354;23087;-35
2022/12/15 02:38:34;;;;;;;47.80;21.40;;;;;;;-5.17;100.00;98257.42;99121;1353;24896;-28
2022/12/15 02:41:01;;;;;;;88.60;30.30;;;;;;;-5.14;100.00;98262.21;99123;1372;24466;-34
2022/12/15 02:43:28;;;;;;;74.50;24.80;;;;;;;-5.08;100.00;98264.58;99246;1353;23192;-33
2022/12/15 02:46:00;;;;;;;61.70;25.80;;;;;;;-5.07;100.00;98263.98;99057;1361;23189;-29
2022/12/15 02:48:32;;;;;;;56.90;20.20;;;;;;;-5.06;100.00;98269.12;99062;1347;22612;-32
2022/12/15 02:51:05;;;;;;;28.80;12.50;;;;;;;-5.03;100.00;98263.96;99110;1362;25336;-30
2022/12/15 02:53:48;;;;;;;50.90;21.80;;;;;;;-5.01;100.00;98262.35;99189;1372;22790;-35
2022/12/15 02:56:17;;;;;;;72.80;28.30;;;;;;;-4.97;100.00;98264.54;99119;1354;22721;-33
2022/12/15 02:59:01;;;;;;;68.70;26.40;;;;;;;-4.97;100.00;98263.82;99017;1353;22691;-29
2022/12/15 03:01:40;;;;;;;45.20;18.50;;;;;;;-4.97;100.00;98270.25;99089;1370;23099;-28
2022/12/15 03:04:07;;;;;;;62.80;24.50;;;;;;;-4.96;100.00;98267.07;99196;1357;24336;-33
2022/12/15 03:06:33;;;;;;;51.10;16.20;;;;;;;-4.89;100.00;98262.28;99069;1353;22722;-33
2022/12/15 03:08:59;;;;;;;25.10;10.90;;;;;;;-4.88;100.00;98262.95;99064;1372;22739;-30
2022/12/15 03:11:24;;;;;;;53.70;21.40;;;;;;;-4.90;100.00;98263.59;98961;1353;23011;-34
2022/12/15 03:13:51;;;;;;;72.40;26.40;;;;;;;-4.90;100.00;98262.67;99062;1356;22850;-33
2022/12/15 03:16:16;;;;;;;69.20;22.80;;;;;;;-4.95;100.00;98264.15;99122;1352;22615;-33
2022/12/15 03:18:42;;;;;;;64.30;23.20;;;;;;;-4.96;100.00;98265.27;99044;1364;23082;-29
2022/12/15 03:21:07;;;;;;;23.20;10.70;;;;;;;-4.91;100.00;98266.32;99096;1362;25256;-31
2022/12/15 03:23:33;;;;;;;31.30;15.10;;;;;;;-4.94;100.00;98269.32;99095;1357;22843;-34
2022/12/15 03:25:58;;;;;;;66.30;24.60;;;;;;;-5.00;100.00;98265.42;99117;1353;22726;-35
2022/12/15 03:28:24;;;;;;;36.10;15.00;;;;;;;-4.87;100.00;98264.88;99100;1370;23076;-30
2022/12/15 03:30:50;;;;;;;77.50;24.00;;;;;;;-4.91;100.00;98267.14;99059;1372;23083;-30
2022/12/15 03:33:15;;;;;;;93.30;46.60;;;;;;;-4.84;100.00;98267.08;98891;1372;23041;-35
2022/12/15 03:35:41;;;;;;;25.40;13.90;;;;;;;-4.64;100.00;98266.64;99229;1372;22857;-30
2022/12/15 03:38:07;;;;;;;77.80;32.20;;;;;;;-4.55;100.00;98260.98;99189;1372;22739;-30
2022/12/15 03:40:32;;;;;;;96.40;41.10;;;;;;;-4.53;100.00;98258.55;99158;1352;24955;-30
2022/12/15 03:42:58;;;;;;;56.10;27.60;;;;;;;-4.54;100.00;98268.98;99057;1357;24395;-35
2022/12/15 03:45:25;;;;;;;78.80;27.20;;;;;;;-4.81;100.00;98274.16;99091;1353;22702;-34
2022/12/15 03:47:51;;;;;;;66.40;36.50;;;;;;;-4.97;100.00;98274.61;99138;1353;22718;-35
2022/12/15 03:50:18;;;;;;;67.60;33.10;;;;;;;-4.77;100.00;98275.23;99000;1354;22847;-30
2022/12/15 03:52:44;;;;;;;92.90;43.70;;;;;;;-5.04;100.00;98290.77;98998;1363;22665;-29
2022/12/15 03:55:10;;;;;;;98.30;46.60;;;;;;;-5.22;100.00;98295.17;99024;1370;22846;-29
2022/12/15 03:57:36;;;;;;;70.00;24.70;;;;;;;-5.14;100.00;98300.45;99051;1353;24340;-31
2022/12/15 04:00:02;;;;;;;75.00;30.90;;;;;;;-5.39;100.00;98307.21;99205;1357;22724;-30
2022/12/15 04:02:28;;;;;;;84.30;31.70;;;;;;;-5.48;100.00;98309.99;99075;1372;23076;-34
2022/12/15 04:04:53;;;;;;;67.00;31.20;;;;;;;-5.55;100.00;98312.45;99094;1371;24454;-29
2022/12/15 04:07:19;;;;;;;99.40;33.70;;;;;;;-5.52;100.00;98313.98;99095;1369;23085;-29
2022/12/15 04:09:45;;;;;;;91.40;35.80;;;;;;;-5.52;100.00;98313.98;99064;1372;24328;-30
2022/12/15 04:12:11;;;;;;;109.10;38.70;;;;;;;-5.47;100.00;98318.81;99157;1365;23211;-30
2022/12/15 04:14:41;;;;;;;81.20;27.60;;;;;;;-5.51;100.00;98324.34;99054;1372;22850;-30
2022/12/15 04:17:08;;;;;;;58.70;30.80;;;;;;;-5.53;100.00;98329.90;99108;1354;22572;-33
2022/12/15 04:22:04;;;;;;;79.60;36.10;;;;;;;-5.43;100.00;98333.14;99255;1353;24346;-33
2022/12/15 05:32:19;;;;;;;80.90;29.60;;;;;;;-5.60;100.00;98466.84;99452;1349;22947;-29
2022/12/15 05:34:45;;;;;;;53.10;18.20;;;;;;;-5.58;100.00;98475.07;99400;1350;23305;-29
2022/12/15 05:37:10;;;;;;;87.40;34.60;;;;;;;-5.53;100.00;98477.69;99343;1360;22971;-34
2022/12/15 05:39:37;;;;;;;100.90;34.10;;;;;;;-5.62;100.00;98480.05;99422;1370;23215;-28
2022/12/15 05:42:02;;;;;;;90.70;35.40;;;;;;;-5.58;100.00;98478.76;99454;1350;22732;-29
2022/12/15 05:44:28;;;;;;;66.80;23.90;;;;;;;-5.53;100.00;98490.91;99444;1366;22690;-29
2022/12/15 05:46:53;;;;;;;58.60;25.80;;;;;;;-5.57;100.00;98488.60;99450;1350;22744;-34
2022/12/15 05:49:19;;;;;;;41.10;15.40;;;;;;;-5.58;100.00;98497.77;99564;1351;22724;-30
2022/12/15 05:51:46;;;;;;;83.90;32.60;;;;;;;-5.53;100.00;98507.15;99427;1370;22596;-34
2022/12/15 05:54:14;;;;;;;81.20;26.90;;;;;;;-5.45;100.00;98514.55;99419;1365;23163;-34
2022/12/15 05:56:39;;;;;;;69.00;28.60;;;;;;;-5.41;100.00;98523.60;99509;1349;22739;-30
2022/12/15 05:59:05;;;;;;;87.10;33.20;;;;;;;-5.35;100.00;98528.45;99406;1370;24452;-32
2022/12/15 06:01:31;;;;;;;101.30;33.10;;;;;;;-5.34;100.00;98512.86;99475;1350;25640;-38
2022/12/15 06:03:57;;;;;;;67.00;24.10;;;;;;;-5.35;100.00;98512.40;99310;1359;22718;-34
2022/12/15 06:06:23;;;;;;;70.30;29.40;;;;;;;-5.26;100.00;98513.58;99563;1354;22864;-34
2022/12/15 06:08:49;;;;;;;82.00;26.70;;;;;;;-5.27;100.00;98516.45;99393;1350;22846;-32
2022/12/15 06:11:15;;;;;;;55.50;21.60;;;;;;;-5.28;100.00;98520.72;99430;1369;25256;-33
2022/12/15 06:13:41;;;;;;;82.50;29.50;;;;;;;-5.30;100.00;98515.98;99384;1350;23044;-32
2022/12/15 06:16:10;;;;;;;74.10;29.80;;;;;;;-5.29;100.00;98523.42;99373;1353;23203;-30
2022/12/15 06:18:38;;;;;;;83.90;31.30;;;;;;;-5.31;100.00;98531.05;99385;1349;22855;-29
2022/12/15 06:21:05;;;;;;;90.50;33.00;;;;;;;-5.29;100.00;98539.83;99475;1370;23069;-34
2022/12/15 06:23:33;;;;;;;68.30;26.90;;;;;;;-5.26;100.00;98536.28;99328;1362;23221;-33
2022/12/15 06:25:59;;;;;;;78.70;31.20;;;;;;;-5.22;100.00;98537.33;99436;1349;22739;-28
2022/12/15 06:28:25;;;;;;;77.40;29.20;;;;;;;-5.21;100.00;98534.63;99345;1350;22732;-32
2022/12/15 06:30:55;;;;;;;94.70;33.30;;;;;;;-5.24;100.00;98546.42;99347;1360;22735;-30
2022/12/15 06:33:21;;;;;;;56.50;21.80;;;;;;;-5.26;100.00;98548.45;99405;1350;22611;-30
2022/12/15 06:35:47;;;;;;;84.00;28.00;;;;;;;-5.30;100.00;98550.02;99374;1366;22699;-32
2022/12/15 06:38:12;;;;;;;59.60;22.80;;;;;;;-5.24;100.00;98551.95;99363;1369;22717;-29
2022/12/15 06:40:38;;;;;;;84.30;29.00;;;;;;;-5.15;100.00;98559.73;99429;1350;22735;-34
2022/12/15 06:43:06;;;;;;;86.80;33.30;;;;;;;-5.07;100.00;98561.88;99356;1346;22595;-35
2022/12/15 06:45:32;;;;;;;78.10;29.60;;;;;;;-5.08;100.00;98568.45;99421;1370;23068;-34
2022/12/15 06:47:57;;;;;;;78.80;30.30;;;;;;;-5.08;100.00;98572.79;99511;1353;22844;-34
2022/12/15 06:50:23;;;;;;;82.20;30.80;;;;;;;-5.07;100.00;98571.48;99381;1366;23072;-34
2022/12/15 06:52:48;;;;;;;75.40;25.80;;;;;;;-5.12;100.00;98582.69;99325;1351;23078;-30
2022/12/15 06:55:14;;;;;;;73.70;28.20;;;;;;;-5.09;100.00;98583.50;99323;1370;22624;-32
2022/12/15 06:57:40;;;;;;;94.90;35.00;;;;;;;-5.08;100.00;98586.52;99443;1351;23202;-33
2022/12/15 07:00:06;;;;;;;52.50;22.10;;;;;;;-5.00;100.00;98588.20;99267;1354;22853;-29
2022/12/15 07:02:31;;;;;;;14.40;9.50;;;;;;;-4.89;100.00;98588.08;99081;1370;23099;-28
2022/12/15 07:04:58;;;;;;;77.20;28.90;;;;;;;-4.89;100.00;98587.20;99346;1359;22732;-36
2022/12/15 07:07:24;;;;;;;43.10;16.60;;;;;;;-5.03;100.00;98593.52;99299;1353;22631;-30
2022/12/15 07:09:49;;;;;;;82.50;28.30;;;;;;;-5.05;100.00;98597.13;99393;1370;23199;-34
2022/12/15 07:12:15;;;;;;;83.30;28.60;;;;;;;-5.08;100.00;98600.73;99364;1357;22851;-34
2022/12/15 07:14:41;;;;;;;75.50;17.50;;;;;;;-5.01;100.00;98601.21;99343;1349;23246;-30
2022/12/15 07:17:09;;;;;;;62.00;22.20;;;;;;;-4.98;100.00;98600.45;99293;1353;22718;-29
2022/12/15 07:19:35;;;;;;;91.80;31.60;;;;;;;-4.99;100.00;98601.95;99416;1351;22857;-30
2022/12/15 07:22:01;;;;;;;88.80;33.50;;;;;;;-5.01;100.00;98612.60;99442;1352;22599;-29
2022/12/15 07:24:27;;;;;;;59.90;22.60;;;;;;;-5.04;100.00;98616.30;99394;1369;22847;-30
2022/12/15 07:26:53;;;;;;;92.60;33.50;;;;;;;-5.02;100.00;98617.35;99406;1353;22593;-30
2022/12/15 07:29:19;;;;;;;61.00;24.80;;;;;;;-5.02;100.00;98619.09;99448;1350;23706;-36
2022/12/15 07:31:44;;;;;;;74.00;27.70;;;;;;;-4.93;100.00;98617.15;99357;1352;23095;-33
2022/12/15 07:34:12;;;;;;;73.60;27.50;;;;;;;-4.95;100.00;98620.27;99382;1370;22720;-34
2022/12/15 07:36:37;;;;;;;81.90;27.30;;;;;;;-4.92;100.00;98624.27;99369;1350;22710;-34
2022/12/15 07:39:03;;;;;;;74.20;27.40;;;;;;;-4.87;100.00;98628.61;99332;1370;22681;-30
2022/12/15 07:41:30;;;;;;;45.30;21.80;;;;;;;-4.82;100.00;98629.91;99405;1351;22894;-29
2022/12/15 07:43:56;;;;;;;56.40;18.70;;;;;;;-4.78;100.00;98635.93;99418;1350;22726;-34
2022/12/15 07:46:22;;;;;;;59.40;24.30;;;;;;;-4.71;100.00;98645.99;99356;1350;22811;-33
2022/12/15 07:48:48;;;;;;;53.10;19.50;;;;;;;-4.70;100.00;98655.54;99381;1358;23082;-34
2022/12/15 07:51:13;;;;;;;48.40;21.40;;;;;;;-4.60;100.00;98664.43;99371;1353;22716;-34
2022/12/15 07:53:39;;;;;;;62.90;21.30;;;;;;;-4.57;100.00;98664.83;99492;1369;25369;-30
2022/12/15 07:56:05;;;;;;;79.90;28.50;;;;;;;-4.51;100.00;98666.49;99254;1353;22817;-29
2022/12/15 07:58:31;;;;;;;53.50;20.80;;;;;;;-4.46;100.00;98672.00;99415;1353;23084;-30
2022/12/15 08:00:58;;;;;;;51.10;23.40;;;;;;;-4.48;100.00;98675.00;99361;1350;24419;-28
2022/12/15 08:03:24;;;;;;;48.60;20.00;;;;;;;-4.41;100.00;98676.39;99414;1340;22851;-28
2022/12/15 08:05:49;;;;;;;64.60;21.30;;;;;;;-4.31;100.00;98678.72;99286;1344;22855;-33
2022/12/15 08:08:17;;;;;;;57.40;16.30;;;;;;;-4.22;100.00;98682.89;99237;1370;22837;-33
2022/12/15 08:10:42;;;;;;;57.60;25.20;;;;;;;-4.20;100.00;98688.39;99379;1350;22746;-33
2022/12/15 08:13:08;;;;;;;48.60;17.30;;;;;;;-4.11;100.00;98693.41;99367;1366;22618;-30
2022/12/15 08:15:38;;;;;;;35.30;13.70;;;;;;;-4.08;100.00;98695.98;99374;1362;22682;-31
2022/12/15 08:18:04;;;;;;;42.20;16.60;;;;;;;-3.99;100.00;98700.33;99447;1349;22680;-32
2022/12/15 08:20:30;;;;;;;41.10;15.70;;;;;;;-3.98;100.00;98700.08;99317;1346;24353;-33
2022/12/15 08:22:56;;;;;;;56.00;23.70;;;;;;;-4.08;100.00;98701.44;98982;1350;23095;-32
2022/12/15 08:25:21;;;;;;;55.50;21.00;;;;;;;-4.05;100.00;98698.91;99378;1350;23295;-30
2022/12/15 08:27:51;;;;;;;40.60;16.30;;;;;;;-4.03;100.00;98700.09;99357;1361;22732;-30
2022/12/15 08:30:17;;;;;;;36.40;16.70;;;;;;;-4.01;100.00;98704.48;99453;1351;23319;-30
2022/12/15 08:32:44;;;;;;;43.90;17.70;;;;;;;-4.02;100.00;98705.29;99368;1357;22684;-28
2022/12/15 08:35:09;;;;;;;27.60;12.60;;;;;;;-4.08;100.00;98708.34;99384;1361;23082;-30
2022/12/15 08:37:35;;;;;;;41.60;17.70;;;;;;;-4.03;100.00;98705.86;99383;1354;22748;-30
2022/12/15 08:40:00;;;;;;;33.50;14.60;;;;;;;-3.96;100.00;98705.13;99279;1353;22716;-34
2022/12/15 08:42:26;;;;;;;23.80;11.60;;;;;;;-3.87;100.00;98706.73;99356;1361;22602;-30
2022/12/15 08:44:52;;;;;;;45.20;21.10;;;;;;;-3.96;100.00;98711.42;99383;1343;22592;-34
2022/12/15 08:47:17;;;;;;;34.70;13.50;;;;;;;-3.96;100.00;98710.90;99390;1370;23095;-33
2022/12/15 08:49:43;;;;;;;18.20;9.10;;;;;;;-3.91;100.00;98716.14;99294;1360;22852;-34
2022/12/15 08:52:08;;;;;;;14.00;6.30;;;;;;;-3.72;100.00;98715.50;99303;1349;22597;-29
2022/12/15 08:54:33;;;;;;;53.70;17.90;;;;;;;-3.75;100.00;98710.08;99354;1370;22735;-30
2022/12/15 08:56:59;;;;;;;114.50;31.70;;;;;;;-3.74;100.00;98703.78;99429;1366;22831;-34
2022/12/15 08:59:25;;;;;;;42.90;19.90;;;;;;;-3.59;100.00;98702.52;99343;1352;22962;-29
2022/12/15 09:01:50;;;;;;;54.00;16.70;;;;;;;-3.43;100.00;98704.36;99312;1350;23203;-32
2022/12/15 09:04:16;;;;;;;28.80;12.00;;;;;;;-3.38;100.00;98708.83;99325;1350;22758;-33
2022/12/15 09:06:41;;;;;;;44.40;17.10;;;;;;;-3.34;100.00;98714.46;99410;1350;22835;-34
2022/12/15 09:09:09;;;;;;;34.80;15.30;;;;;;;-3.34;100.00;98714.16;99402;1364;25408;-34
2022/12/15 09:11:34;;;;;;;35.10;17.60;;;;;;;-3.26;100.00;98714.21;99368;1344;22732;-34
2022/12/15 09:14:00;;;;;;;40.80;14.10;;;;;;;-3.26;100.00;98709.98;99288;1369;23029;-30
2022/12/15 09:16:26;;;;;;;43.20;19.30;;;;;;;-3.12;100.00;98711.25;99390;1367;23194;-29
2022/12/15 09:18:53;;;;;;;45.30;15.50;;;;;;;-3.04;100.00;98708.74;99354;1350;22832;-29
2022/12/15 09:21:21;;;;;;;32.30;16.70;;;;;;;-2.94;100.00;98709.42;99360;1353;22725;-34
2022/12/15 09:23:50;;;;;;;19.00;9.80;;;;;;;-2.93;100.00;98713.71;99419;1353;26659;-33
2022/12/15 09:26:16;;;;;;;43.00;21.00;;;;;;;-2.88;100.00;98715.77;99506;1366;25416;-34
2022/12/15 09:28:42;;;;;;;42.10;16.20;;;;;;;-3.08;100.00;98717.09;99452;1343;23301;-31
2022/12/15 09:31:13;;;;;;;33.30;15.20;;;;;;;-2.96;100.00;98717.36;99010;1362;22605;-30
2022/12/15 09:33:39;;;;;;;35.00;13.60;;;;;;;-2.96;100.00;98719.06;99370;1360;23070;-29
2022/12/15 09:36:05;;;;;;;19.70;8.80;;;;;;;-2.87;100.00;98716.36;99355;1350;24922;-30
2022/12/15 09:38:35;;;;;;;20.20;8.00;;;;;;;-2.90;100.00;98716.80;99369;1360;22783;-35
2022/12/15 09:41:12;;;;;;;72.40;22.10;;;;;;;-2.76;100.00;98720.56;99401;1343;22721;-30
2022/12/15 09:43:45;;;;;;;58.80;19.80;;;;;;;-2.76;100.00;98724.55;99402;1370;23956;-35
2022/12/15 09:46:20;;;;;;;58.90;23.00;;;;;;;-2.78;100.00;98726.34;99289;1352;22733;-29
2022/12/15 09:48:45;;;;;;;71.40;23.00;;;;;;;-2.70;99.98;98729.87;99406;1350;22731;-30
2022/12/15 09:51:13;;;;;;;133.70;35.70;;;;;;;-2.77;99.96;98730.83;99375;1350;23208;-35
2022/12/15 09:53:38;;;;;;;55.70;19.60;;;;;;;-2.84;99.96;98737.70;99455;1350;22711;-34
2022/12/15 09:56:07;;;;;;;37.30;12.80;;;;;;;-2.82;100.00;98741.05;99431;1350;22725;-30
2022/12/15 09:58:45;;;;;;;19.10;9.10;;;;;;;-2.74;100.00;98745.23;99380;1349;22721;-31
2022/12/15 10:01:24;;;;;;;19.80;7.80;;;;;;;-2.63;99.33;98752.24;99427;1351;25338;-30
2022/12/15 10:03:58;;;;;;;56.00;22.60;;;;;;;-2.65;98.64;98755.02;99300;1358;22847;-31
2022/12/15 10:06:29;;;;;;;72.60;23.20;;;;;;;-2.85;99.59;98759.18;98959;1366;24301;-28
2022/12/15 10:08:58;;;;;;;41.50;15.30;;;;;;;-2.79;100.00;98765.14;99272;1352;22929;-33
2022/12/15 10:11:48;;;;;;;55.20;21.00;;;;;;;-2.67;99.92;98768.02;99483;1355;25309;-31
2022/12/15 10:14:26;;;;;;;57.00;21.60;;;;;;;-2.75;100.00;98767.27;99389;1351;25404;-33
2022/12/15 10:17:05;;;;;;;55.70;20.10;;;;;;;-2.70;100.00;98766.98;99407;1359;24461;-30
2022/12/15 10:19:54;;;;;;;56.40;16.00;;;;;;;-2.74;100.00;98762.24;99377;1370;22730;-28
2022/12/15 10:22:31;;;;;;;45.90;18.20;;;;;;;-2.50;100.00;98766.44;99402;1350;22744;-29
2022/12/15 10:24:58;;;;;;;33.50;15.70;;;;;;;-2.36;100.00;98765.85;99378;1366;22603;-34
2022/12/15 10:27:35;;;;;;;21.20;9.40;;;;;;;-2.14;100.00;98772.23;99418;1349;25543;-33
2022/12/15 10:30:07;;;;;;;33.90;14.00;;;;;;;-2.05;100.00;98773.98;99289;1368;25483;-31
2022/12/15 10:32:52;;;;;;;38.50;15.40;;;;;;;-2.12;99.96;98776.10;99427;1353;22609;-31
2022/12/15 10:35:22;;;;;;;24.30;11.80;;;;;;;-1.98;100.00;98777.05;99377;1359;22685;-31
2022/12/15 10:37:47;;;;;;;30.20;13.30;;;;;;;-1.98;100.00;98777.39;99081;1368;22865;-30
2022/12/15 10:40:16;;;;;;;33.20;13.10;;;;;;;-1.80;99.47;98777.59;99339;1349;23183;-31
2022/12/15 10:42:46;;;;;;;52.20;16.80;;;;;;;-1.91;98.10;98776.95;99447;1347;22722;-34
2022/12/15 10:45:28;;;;;;;62.10;15.30;;;;;;;-1.96;98.20;98776.54;99408;1351;23136;-29
2022/12/15 10:47:57;;;;;;;79.70;23.40;;;;;;;-2.12;99.18;98776.80;99302;1360;22724;-29
2022/12/15 10:50:24;;;;;;;35.70;14.40;;;;;;;-2.16;99.15;98774.73;99437;1350;22699;-30
2022/12/15 10:52:49;;;;;;;36.20;15.00;;;;;;;-2.00;99.61;98778.79;99353;1353;22847;-28
2022/12/15 10:55:36;;;;;;;43.70;17.90;;;;;;;-1.97;98.81;98781.98;99322;1350;22721;-34
2022/12/15 10:58:03;;;;;;;59.60;15.70;;;;;;;-1.88;99.56;98778.58;99336;1370;22661;-34
2022/12/15 11:00:30;;;;;;;40.20;15.40;;;;;;;-1.77;98.07;98771.92;99414;1366;22717;-31
2022/12/15 11:02:56;;;;;;;30.40;12.00;;;;;;;-1.77;96.29;98776.02;99583;1344;22737;-30
2022/12/15 11:46:26;;;;;;;69.30;19.80;;;;;;;0.07;90.34;98791.89;99243;1369;557799;-34
2022/12/15 11:49:08;;;;;;;81.80;22.70;;;;;;;-0.25;89.44;98794.32;99117;1353;414509;-32
2022/12/15 11:51:40;;;;;;;72.40;22.00;;;;;;;-0.20;89.03;98801.86;99352;1344;22725;-30
2022/12/15 11:54:13;;;;;;;35.00;10.80;;;;;;;-0.24;90.05;98804.27;99342;1357;26541;-29
2022/12/15 11:56:43;;;;;;;57.40;18.80;;;;;;;-0.35;87.76;98813.59;99364;1371;23504;-35
2022/12/15 11:59:41;;;;;;;82.40;23.30;;;;;;;-0.64;88.52;98817.86;99053;1355;23042;-35
2022/12/15 12:02:30;;;;;;;38.00;12.40;;;;;;;-0.78;91.16;98819.67;99337;1359;22856;-33
2022/12/15 12:05:25;;;;;;;32.30;12.80;;;;;;;-0.64;92.64;98818.01;99377;1353;23334;-29
2022/12/15 12:08:15;;;;;;;21.60;10.00;;;;;;;-0.58;92.85;98819.77;99318;1352;22970;-29
2022/12/15 12:11:05;;;;;;;27.30;12.40;;;;;;;-0.45;92.45;98823.98;99244;1363;22742;-36
2022/12/15 12:13:52;;;;;;;19.90;9.10;;;;;;;-0.58;92.76;98825.35;99372;1352;24418;-30
2022/12/15 12:16:36;;;;;;;27.00;8.00;;;;;;;-0.60;92.91;98829.96;99426;1371;22581;-35
2022/12/15 12:19:09;;;;;;;27.00;11.50;;;;;;;-0.63;92.33;98832.73;99131;1354;23071;-34
2022/12/15 12:21:48;;;;;;;18.50;9.50;;;;;;;-0.73;90.81;98830.64;99432;1362;22596;-35
2022/12/15 12:24:28;;;;;;;19.30;6.80;;;;;;;-0.97;90.51;98834.87;99303;1350;24336;-35
2022/12/15 12:27:03;;;;;;;27.90;14.20;;;;;;;-1.03;89.96;98834.14;99341;1361;22599;-31
2022/12/15 12:29:45;;;;;;;17.30;10.80;;;;;;;-1.31;91.02;98833.86;99277;1350;22593;-33
2022/12/15 12:32:33;;;;;;;26.70;13.00;;;;;;;-1.26;90.97;98835.39;99314;1367;22960;-31
2022/12/15 12:35:28;;;;;;;24.20;11.10;;;;;;;-1.55;91.39;98838.98;99347;1366;22706;-35
2022/12/15 12:38:02;;;;;;;30.90;12.80;;;;;;;-1.82;91.16;98829.17;99376;1365;22593;-35
2022/12/15 12:40:45;;;;;;;25.70;10.70;;;;;;;-1.99;92.79;98823.91;99249;1363;24323;-35
2022/12/15 12:43:26;;;;;;;5.80;4.10;;;;;;;-1.91;93.46;98826.95;99390;1359;22853;-35
2022/12/15 12:45:54;;;;;;;34.00;14.90;;;;;;;-1.77;91.00;98822.92;99426;1362;22671;-30
2022/12/15 12:48:37;;;;;;;48.10;19.30;;;;;;;-2.09;91.73;98818.67;99376;1353;23080;-30
2022/12/15 12:51:26;;;;;;;40.10;15.90;;;;;;;-2.36;92.76;98815.31;99399;1362;23203;-35
2022/12/15 12:53:52;;;;;;;52.00;16.60;;;;;;;-2.68;94.17;98818.70;99331;1369;23086;-35
2022/12/15 12:56:42;;;;;;;39.80;14.10;;;;;;;-2.79;96.47;98818.77;99314;1357;23343;-30
2022/12/15 12:59:31;;;;;;;44.90;15.50;;;;;;;-2.80;98.11;98814.44;99388;1353;23041;-29
2022/12/15 13:02:17;;;;;;;29.00;13.70;;;;;;;-2.76;98.96;98817.66;99279;1353;24809;-30
2022/12/15 13:05:02;;;;;;;43.70;16.70;;;;;;;-2.81;99.32;98817.83;99447;1353;23013;-29
2022/12/15 13:07:33;;;;;;;45.90;15.90;;;;;;;-2.99;98.96;98821.96;99342;1353;23066;-34
2022/12/15 13:10:13;;;;;;;72.80;26.80;;;;;;;-3.02;99.73;98816.45;99308;1360;22735;-33
2022/12/15 13:12:57;;;;;;;63.20;19.30;;;;;;;-3.03;100.00;98817.25;99357;1357;22847;-34
2022/12/15 13:15:46;;;;;;;70.50;29.10;;;;;;;-2.97;100.00;98820.42;99061;1371;24328;-34
2022/12/15 13:18:22;;;;;;;77.50;30.30;;;;;;;-2.88;100.00;98828.53;99384;1353;23205;-31
2022/12/15 13:20:48;;;;;;;97.60;33.10;;;;;;;-2.80;100.00;98827.38;99402;1371;22836;-36
2022/12/15 13:23:35;;;;;;;96.60;35.90;;;;;;;-2.76;100.00;98826.74;99333;1353;22610;-34
2022/12/15 13:26:17;;;;;;;105.60;36.50;;;;;;;-2.72;100.00;98825.67;99316;1369;23096;-31
2022/12/15 13:28:43;;;;;;;112.70;41.20;;;;;;;-2.70;100.00;98829.54;99294;1352;22710;-34
2022/12/15 13:31:26;;;;;;;78.60;29.00;;;;;;;-2.74;100.00;98833.02;99353;1352;22857;-30
2022/12/15 13:33:56;;;;;;;195.70;64.70;;;;;;;-2.71;100.00;98838.07;99356;1360;24264;-29
2022/12/15 13:36:45;;;;;;;447.00;158.60;;;;;;;-2.81;100.00;98839.61;99391;1357;23217;-29
2022/12/15 13:39:31;;;;;;;597.30;214.50;;;;;;;-3.03;100.00;98841.39;99377;1369;23066;-30
2022/12/15 13:42:23;;;;;;;1029.90;321.30;;;;;;;-3.05;100.00;98841.54;99340;1354;22867;-35
2022/12/15 13:44:51;;;;;;;343.10;108.40;;;;;;;-2.73;100.00;98835.78;99381;1353;22734;-35
2022/12/15 13:47:25;;;;;;;1404.90;406.90;;;;;;;-2.20;100.00;98836.30;99374;1353;22856;-30
2022/12/15 13:50:12;;;;;;;721.20;254.30;;;;;;;-1.65;100.00;98841.74;99375;1353;25470;-36
2022/12/15 13:52:49;;;;;;;523.70;184.90;;;;;;;-1.12;100.00;98843.08;99367;1353;23091;-31
2022/12/15 13:55:18;;;;;;;264.80;87.80;;;;;;;-0.79;100.00;98844.65;99380;1363;24278;-35
2022/12/15 13:57:53;;;;;;;231.80;78.20;;;;;;;-0.63;100.00;98848.31;99403;1353;23192;-31
2022/12/15 14:00:19;;;;;;;126.70;43.20;;;;;;;-0.62;100.00;98858.23;99420;1371;22612;-36
2022/12/15 14:02:45;;;;;;;273.60;66.60;;;;;;;-0.74;100.00;98862.19;99322;1357;22737;-36
2022/12/15 14:05:20;;;;;;;683.20;189.40;;;;;;;-0.85;100.00;98861.58;98970;1369;22598;-37
2022/12/15 14:07:56;;;;;;;239.70;60.90;;;;;;;-1.05;100.00;98864.01;99353;1371;22600;-31
2022/12/15 14:10:35;;;;;;;447.00;134.30;;;;;;;-1.36;98.81;98872.75;99265;1371;22713;-31
2022/12/15 14:13:18;;;;;;;284.70;99.50;;;;;;;-1.73;97.28;98878.40;99074;1359;22846;-31
2022/12/15 14:15:48;;;;;;;327.10;117.50;;;;;;;-2.10;97.05;98887.30;99347;1353;22836;-35
2022/12/15 14:18:38;;;;;;;614.00;199.10;;;;;;;-2.35;98.37;98893.11;99330;1353;23093;-35
2022/12/15 14:21:05;;;;;;;363.40;118.00;;;;;;;-2.63;99.31;98900.98;99324;1353;24250;-35
2022/12/15 14:23:43;;;;;;;322.80;99.90;;;;;;;-2.87;99.91;98895.59;99078;1357;22840;-34
2022/12/15 14:26:11;;;;;;;255.00;76.90;;;;;;;-3.29;99.07;98896.14;99089;1363;22722;-34
2022/12/15 14:28:38;;;;;;;139.00;48.90;;;;;;;-3.60;99.67;98898.23;99431;1353;22726;-30